Aviation Digital Data Service (ADDS)

Output produced by METARs form (1256 UTC 17 August 2019)
found at http://aviationweather.gov/metar/data/
 
METAR text: KPSO 171255Z AUTO 00000KT 10SM CLR 07/03 A3026 RMK AO2 T00690031
Conditions at: KPSO (PAGOSA SPRINGS , CO, US) observed 1255 UTC 17 August 2019
Temperature: 6.9°C (44°F)
Dewpoint: 3.1°C (38°F) [RH = 77%]
Pressure (altimeter): 30.26 inches Hg (1024.8 mb)
Winds: calm
Visibility: 10 or more miles (16+ km)
Ceiling: at least 12,000 feet AGL
Clouds: sky clear below 12,000 feet AGL
Weather: automated observation with no human augmentation;
there may or may not be significant weather present at this time

METAR text: KPSO 171235Z AUTO 20003KT 10SM CLR 07/03 A3025 RMK AO2 T00730026
Conditions at: KPSO (PAGOSA SPRINGS , CO, US) observed 1235 UTC 17 August 2019
Temperature: 7.3°C (45°F)
Dewpoint: 2.6°C (37°F) [RH = 72%]
Pressure (altimeter): 30.25 inches Hg (1024.5 mb)
Winds: from the SSW (200 degrees) at 3 MPH (3 knots; 1.5 m/s)
Visibility: 10 or more miles (16+ km)
Ceiling: at least 12,000 feet AGL
Clouds: sky clear below 12,000 feet AGL
Weather: automated observation with no human augmentation;
there may or may not be significant weather present at this time

METAR text: KPSO 171215Z AUTO 00000KT 10SM CLR 07/03 A3024 RMK AO2 T00690032
Conditions at: KPSO (PAGOSA SPRINGS , CO, US) observed 1215 UTC 17 August 2019
Temperature: 6.9°C (44°F)
Dewpoint: 3.2°C (38°F) [RH = 77%]
Pressure (altimeter): 30.24 inches Hg (1024.1 mb)
Winds: calm
Visibility: 10 or more miles (16+ km)
Ceiling: at least 12,000 feet AGL
Clouds: sky clear below 12,000 feet AGL
Weather: automated observation with no human augmentation;
there may or may not be significant weather present at this time